Kangerlussuaq Airport

BGSF · Greenland

METAR BGSF · Kangerlussuaq Airport

27 二月 11:50 LT
1h
罗盘
风向 的 风向 240° Kangerlussuaq Airport 9/27
风: 2 kt, 1 beaufort

2 kt

改变
0 ft 1.000 2.000 3.000 4.000 5.000
未检测到零云
METAR BGSF 271350Z AUTO 24002KT 9999NDV NCD M16/M19 Q1001

METAR Kangerlussuaq Airport - BGSF/SFJ

该字段位于Greenland中。 该机场位于纬度67,01160和经度-50,71475。 该机场有一条跑道: 9/27. 本场的ICAO机场代码为BGSF。 该机场的IATA代码为SFJ。 机场在Sondrestrom FIR中。

该航空气象观测是针对Kangerlussuaq Airport在2024年2月27日 11:50, 当地时间进行的。

机场观察

风向为240°,速度为2 kt。

可见度为10 km 或者更多。

有未检测到零云。 没有观察到天花板。

温度为-16 °C,阵风为-21 °C。 露点为-19 °C,相对湿度为78%。 海平面上的气压为1001 hPa (QNH)。

白天

今天,太阳从08:47升起,在18:23降落。 这适用于Kangerlussuaq Airport,世界夏令时可能有所不同。 当地时间与世界标准时间之间的时差为-2 小时。 当前,没有夏令时有效。

公司介绍

我们没有关于这个机场的公司信息。

体会

到Vliegles.nl去找飞行课程,跳伞和其他飞行体验。 浏览页面,了解Kangerlussuaq Airport附近所有可用的活动。 你也可以使用搜索功能来寻找你所在地附近的特定飞行课程、跳伞或其他飞行体验。

跑道

Id 标题 侧风 逆风 侧风 %
9/27 062°-242° 2 kt 3 %

逆风成分最大的方向会被突出显示,并用于横风计算。 这并不一定意味着这个方向在使用。

乌云

- NCD 未检测到零云

温度 & 天气

温度 -16 °C
露点 -19 °C
相对湿度 78%
风寒 -21 °C
Kp-index 0 (0-9)

白天

日出
08:47
中午
13:35
日落
18:23 (5:22)

小工具

你想在你的网站上有一个关于Kangerlussuaq Airport的当前航空天气(METAR)的小部件吗?

显示HTML代码
?>